Sterling, VA

9:58 AM EDT on July 29, 2016 (GMT -0400)
Brambleton | Change Station
CLOSE
Current Station
Personal Weather Station
Location: Brambleton, VA
Elevation: 310 ft
Nearby Weather Stations

Elev 310 ft 38.98 °N, 77.52 °W | Updated 4 seconds ago

Mostly Cloudy
Mostly Cloudy
77.7 °F
Feels Like 80 °F
N
2.0
Wind Variable Wind from NE
Gusts 5.0 mph

Today
High -- | Low -- °F
--% Chance of Precip.
Yesterday
High -- | Low -- °F
Precip. -- in
6:08 AM 8:23 PM
Waning Crescent, 22% visible
Pressure 29.90 in
Visibility 10.0 miles
Clouds Mostly Cloudy 1700 ft
Mostly Cloudy 2200 ft
Mostly Cloudy 4000 ft
Heat Index 80 °F
Dew Point 74 °F
Humidity 87%
Rainfall 0.20 in
Snow Depth Not available.
UV 0.0 out of 12
Pollen 4.10 out of 12
Air Quality Not available.
Flu Activity Not available.
METAR KIAD 291352Z 35008KT 10SM BKN017 BKN022 BKN040 24/21 A2990 RMK AO2 SLP123 T02440206

More Conditions Fewer Conditions

Pressure 29.90 in
Visibility 10.0 miles
Clouds Mostly Cloudy 1700 ft
Mostly Cloudy 2200 ft
Mostly Cloudy 4000 ft
Heat Index 80 °F
Dew Point 74 °F
Humidity 87%
Rainfall 0.20 in
Snow Depth Not available.
UV 0.0 out of 12
Pollen 4.10 out of 12
Air Quality Not available.
Flu Activity Not available.
METAR KIAD 291352Z 35008KT 10SM BKN017 BKN022 BKN040 24/21 A2990 RMK AO2 SLP123 T02440206

More Conditions Fewer Conditions

10-Day Weather Forecast

Almanac

Astronomy

Jul. 29, 2016 Rise Set
Actual Time 6:08 AM EDT 8:23 PM EDT
Civil Twilight 5:38 AM EDT 8:53 PM EDT
Nautical Twilight 5:01 AM EDT 9:30 PM EDT
Astronomical Twilight 4:21 AM EDT 10:10 PM EDT
Moon 2:10 AM EDT 4:35 PM EDT
Length of Visible Light 15h 15m
Length of Day
14h 15m
Tomorrow will be 1m 52s shorter.
Waning Crescent, 22% of the Moon is Illuminated
Today
Waning Crescent
Aug 2
New
Aug 10
First Quarter
Aug 18
Full
Aug 24
Last Quarter

Yesterday's Extremes

State Highs State Lows

Community

WunderPhotos

Upload Photos

1,928,340 photos uploaded!

WunderBlogs® & News

Nearby

Snow Depth

Station Depth Elevation
No new snow has been reported.

Earthquake Activity

City Distance Mag. Time & Date
No recent earthquake activity has been reported nearby.
Minimum magnitude displayed is 2.5.

Coastal Water Temperatures

Place Temperature
Washington, DC 88.0 °F
Baltimore, MD 84.9 °F
Solomons Island, MD 84.9 °F

Nearby Weather Stations